Khoy, Iran
Current Conditions -  °F | °C
As of 8:00 AM on Wednesday 22 Oct 2014 (Local Time) from UBBN Reporting Station
Clear Clear  
Wind Chill:   Ceiling: Unl
Heat Index:   Visibility: 6mi
Dew Point:   Wind: 2mph
Humidity: 87%   Direction: NA
Pressure: 30.09"   Gusts: NA
Location:  38.53°N, 44.97°E
Report Text: UBBN 220500Z VRB02KT 9999 NSC 08/06 Q1019 R14R/CLRD60NOSIG RMK MT OP QFE689
Loading
Personal Weather Stations






























Interactive Weather Map
Tropical Storm Tracking
New forecast layout! Learn more

10-Day Weather Forecast

Advertisements
Track Severe Weather on mobile